Time;durP1;ratioP1;P1;durP2;ratioP2;P2;SDS_P1;SDS_P2;PMS_P1;PMS_P2;Temp;Humidity;BMP_temperature;BMP_pressure;BME280_temperature;BME280_humidity;BME280_pressure;Samples;Min_cycle;Max_cycle;Signal;HPM_P1;HPM_P2
2023/05/01 00:01:15;;;;;;;3.22;2.25;;;16.90;99.60;;;;;;5044641;28;20218;-29
2023/05/01 00:03:45;;;;;;;3.42;2.38;;;16.90;99.60;;;;;;5045260;28;20709;-29
2023/05/01 00:06:14;;;;;;;2.97;2.50;;;16.80;99.50;;;;;;5045241;28;20200;-29
2023/05/01 00:08:44;;;;;;;3.42;2.28;;;16.80;99.50;;;;;;5045860;28;21019;-29
2023/05/01 00:11:12;;;;;;;3.97;2.30;;;16.80;99.50;;;;;;5033752;28;20220;-29
2023/05/01 00:13:39;;;;;;;2.97;2.22;;;16.80;99.50;;;;;;5025257;28;20197;-29
2023/05/01 00:16:11;;;;;;;3.50;2.55;;;16.80;99.50;;;;;;5049301;28;20682;-29
2023/05/01 00:18:41;;;;;;;2.65;2.40;;;16.80;99.50;;;;;;5008069;28;20336;-29
2023/05/01 00:21:11;;;;;;;3.03;2.20;;;16.80;99.50;;;;;;5034992;28;20298;-29
2023/05/01 00:23:40;;;;;;;2.42;2.10;;;16.80;99.50;;;;;;5036402;28;20691;-29
2023/05/01 00:26:09;;;;;;;2.55;2.20;;;16.80;99.50;;;;;;5043358;28;20285;-29
2023/05/01 00:28:39;;;;;;;2.40;2.10;;;16.80;99.50;;;;;;5041168;28;20213;-29
2023/05/01 00:31:06;;;;;;;2.25;2.05;;;16.70;99.50;;;;;;5041962;28;20243;-29
2023/05/01 00:33:39;;;;;;;3.25;2.20;;;16.70;99.50;;;;;;5027791;28;20762;-29
2023/05/01 00:36:06;;;;;;;3.92;2.60;;;16.70;99.50;;;;;;5036109;28;20307;-29
2023/05/01 00:38:33;;;;;;;3.25;2.20;;;16.70;99.50;;;;;;5039032;28;20201;-29
2023/05/01 00:41:00;;;;;;;3.17;2.03;;;16.70;99.50;;;;;;5025517;28;20774;-29
2023/05/01 00:43:32;;;;;;;3.57;2.07;;;16.70;99.50;;;;;;5028838;28;20207;-29
2023/05/01 00:46:02;;;;;;;2.35;1.95;;;16.60;99.50;;;;;;5034435;28;20240;-29
2023/05/01 00:48:34;;;;;;;4.18;2.40;;;16.60;99.50;;;;;;5032756;28;20228;-29
2023/05/01 00:51:04;;;;;;;5.32;2.28;;;16.60;99.50;;;;;;5038114;28;20297;-29
2023/05/01 00:53:38;;;;;;;2.15;1.95;;;16.60;99.50;;;;;;5027736;28;20228;-29
2023/05/01 00:56:11;;;;;;;2.80;2.08;;;16.60;99.50;;;;;;5036033;28;20698;-29
2023/05/01 00:58:41;;;;;;;3.55;2.40;;;16.60;99.50;;;;;;5021813;28;20227;-29
2023/05/01 01:01:11;;;;;;;2.95;2.10;;;16.60;99.50;;;;;;5046825;28;20201;-28
2023/05/01 01:03:38;;;;;;;3.20;2.10;;;16.60;99.50;;;;;;5040722;28;20243;-29
2023/05/01 01:06:30;;;;;;;2.45;2.25;;;16.50;99.50;;;;;;5037496;28;20696;-29
2023/05/01 01:09:38;;;;;;;3.00;2.22;;;16.60;99.60;;;;;;5050835;28;20298;-29
2023/05/01 01:12:14;;;;;;;2.72;2.42;;;16.50;99.50;;;;;;5043498;28;20713;-29
2023/05/01 01:15:00;;;;;;;3.53;2.33;;;16.50;99.60;;;;;;5029792;28;20632;-34
2023/05/01 01:17:29;;;;;;;2.63;2.13;;;16.50;99.60;;;;;;5034504;28;20222;-34
2023/05/01 01:20:29;;;;;;;2.88;2.50;;;16.50;99.60;;;;;;5043324;28;20209;-34
2023/05/01 01:23:23;;;;;;;3.53;2.15;;;16.50;99.60;;;;;;5037299;28;20255;-34
2023/05/01 01:26:21;;;;;;;3.20;2.47;;;16.50;99.60;;;;;;5029168;28;20209;-34
2023/05/01 01:29:11;;;;;;;3.80;2.28;;;16.40;99.50;;;;;;5039432;28;20216;-34
2023/05/01 01:32:14;;;;;;;4.53;2.70;;;16.40;99.60;;;;;;5041388;28;20228;-34
2023/05/01 01:35:01;;;;;;;3.83;2.20;;;16.40;99.60;;;;;;5041912;28;20306;-34
2023/05/01 01:37:49;;;;;;;4.40;2.63;;;16.30;99.50;;;;;;5035884;28;20219;-34
2023/05/01 01:40:21;;;;;;;5.10;2.40;;;16.40;99.60;;;;;;5019026;28;20783;-34
2023/05/01 01:42:51;;;;;;;2.55;2.30;;;16.40;99.60;;;;;;5041155;28;20192;-34
2023/05/01 01:45:28;;;;;;;3.90;2.45;;;16.40;99.60;;;;;;5040314;28;20756;-34
2023/05/01 01:47:56;;;;;;;3.53;2.90;;;16.40;99.60;;;;;;5039300;28;20231;-34
2023/05/01 01:50:25;;;;;;;3.20;2.25;;;16.40;99.60;;;;;;5036074;28;20248;-34
2023/05/01 01:52:59;;;;;;;2.53;2.25;;;16.30;99.60;;;;;;5025875;28;20256;-34
2023/05/01 01:55:31;;;;;;;3.00;2.33;;;16.40;99.60;;;;;;5035205;28;20197;-34
2023/05/01 01:58:01;;;;;;;3.00;2.25;;;16.40;99.60;;;;;;5036811;28;20255;-34
2023/05/01 02:00:34;;;;;;;3.50;2.58;;;16.40;99.60;;;;;;5025517;28;20251;-34
2023/05/01 02:03:03;;;;;;;5.30;2.75;;;16.30;99.60;;;;;;5022104;28;20308;-34
2023/05/01 02:05:31;;;;;;;3.30;2.60;;;16.30;99.60;;;;;;5030823;28;20240;-34
2023/05/01 02:08:03;;;;;;;4.35;2.67;;;16.30;99.60;;;;;;5043525;28;20323;-34
2023/05/01 02:10:33;;;;;;;4.05;2.67;;;16.30;99.60;;;;;;5042011;28;20655;-34
2023/05/01 02:13:04;;;;;;;3.60;2.85;;;16.30;99.60;;;;;;5041327;28;20226;-34
2023/05/01 02:15:39;;;;;;;2.90;2.35;;;16.30;99.60;;;;;;5025371;28;20209;-34
2023/05/01 02:18:07;;;;;;;4.95;2.20;;;16.30;99.80;;;;;;5022185;28;20201;-34
2023/05/01 02:20:37;;;;;;;2.95;2.30;;;16.30;99.70;;;;;;5026609;28;20219;-34
2023/05/01 02:23:08;;;;;;;3.33;2.42;;;16.30;99.70;;;;;;5042590;28;20224;-34
2023/05/01 02:25:38;;;;;;;3.83;2.67;;;16.30;99.70;;;;;;5041171;28;20289;-34
2023/05/01 02:28:12;;;;;;;3.30;2.22;;;16.20;99.70;;;;;;5041704;28;20588;-34
2023/05/01 02:30:39;;;;;;;4.10;2.28;;;16.20;99.70;;;;;;5037248;28;20243;-34
2023/05/01 02:33:11;;;;;;;4.00;2.60;;;16.20;99.70;;;;;;5026902;28;20782;-34
2023/05/01 02:35:46;;;;;;;3.15;2.60;;;16.20;99.70;;;;;;5024043;28;20266;-34
2023/05/01 02:38:16;;;;;;;3.63;2.30;;;16.20;99.70;;;;;;5037915;28;20398;-34
2023/05/01 02:40:56;;;;;;;4.63;2.30;;;16.20;99.70;;;;;;5039299;28;20223;-34
2023/05/01 02:43:27;;;;;;;3.80;2.22;;;16.20;99.80;;;;;;5035918;28;20211;-34
2023/05/01 02:45:58;;;;;;;3.27;2.30;;;16.20;99.90;;;;;;5041270;28;20257;-34
2023/05/01 02:48:29;;;;;;;4.90;2.70;;;16.10;99.80;;;;;;5029317;28;20216;-34
2023/05/01 02:51:02;;;;;;;2.60;2.40;;;16.10;99.80;;;;;;5025926;28;20209;-34
2023/05/01 02:53:31;;;;;;;3.80;2.60;;;16.10;99.80;;;;;;5039159;28;20335;-34
2023/05/01 02:55:59;;;;;;;2.58;2.38;;;16.10;99.80;;;;;;5052523;28;20369;-34
2023/05/01 02:58:31;;;;;;;5.40;2.20;;;16.20;99.80;;;;;;5043057;28;20196;-34
2023/05/01 03:01:04;;;;;;;4.38;2.88;;;16.20;99.80;;;;;;5034920;28;20200;-34
2023/05/01 03:03:34;;;;;;;4.65;2.42;;;16.10;99.90;;;;;;5035435;28;20209;-34
2023/05/01 03:06:04;;;;;;;2.65;2.42;;;16.10;99.90;;;;;;5036203;28;20200;-34
2023/05/01 03:08:31;;;;;;;4.35;2.58;;;16.10;99.90;;;;;;5045726;28;20216;-34
2023/05/01 03:10:58;;;;;;;4.32;2.65;;;16.10;99.90;;;;;;5043055;28;20208;-34
2023/05/01 03:13:30;;;;;;;5.10;2.78;;;16.10;99.90;;;;;;5042304;28;20208;-34
2023/05/01 03:15:58;;;;;;;3.33;2.70;;;16.10;99.90;;;;;;5042891;28;20290;-34
2023/05/01 03:18:28;;;;;;;3.15;2.35;;;16.00;99.80;;;;;;5023857;28;20734;-34
2023/05/01 03:20:55;;;;;;;2.67;2.47;;;16.00;99.80;;;;;;5031492;28;20192;-34
2023/05/01 03:23:26;;;;;;;3.65;2.97;;;16.00;99.80;;;;;;5039208;28;20224;-34
2023/05/01 03:25:54;;;;;;;3.92;2.78;;;16.00;99.80;;;;;;5038581;28;20224;-34
2023/05/01 03:28:23;;;;;;;2.65;2.45;;;15.90;99.80;;;;;;5040083;28;20303;-34
2023/05/01 03:30:51;;;;;;;3.53;2.50;;;15.90;99.80;;;;;;5047418;28;20283;-34
2023/05/01 03:33:18;;;;;;;3.35;2.30;;;15.90;99.80;;;;;;5042357;28;20255;-34
2023/05/01 03:35:46;;;;;;;2.92;2.47;;;15.90;99.80;;;;;;5027614;28;20209;-34
2023/05/01 03:38:15;;;;;;;3.67;2.25;;;15.90;99.90;;;;;;5043414;28;20290;-34
2023/05/01 03:40:43;;;;;;;3.08;2.67;;;15.90;99.90;;;;;;5031448;28;20687;-34
2023/05/01 03:43:12;;;;;;;5.05;3.03;;;15.80;99.80;;;;;;5042313;28;20671;-34
2023/05/01 03:45:42;;;;;;;5.97;2.67;;;15.80;99.90;;;;;;5045476;28;20237;-34
2023/05/01 03:48:13;;;;;;;3.90;2.55;;;15.80;99.90;;;;;;5034816;28;20214;-34
2023/05/01 03:50:40;;;;;;;2.90;2.50;;;15.80;99.90;;;;;;5029380;28;20296;-34
2023/05/01 03:53:07;;;;;;;2.92;2.63;;;15.80;99.90;;;;;;5043640;28;20224;-34
2023/05/01 03:55:34;;;;;;;5.25;2.90;;;15.70;99.90;;;;;;5034550;28;20323;-33
2023/05/01 03:58:02;;;;;;;3.80;2.70;;;15.70;99.90;;;;;;5041538;28;20431;-34
2023/05/01 04:00:31;;;;;;;4.00;2.97;;;15.70;99.90;;;;;;5043250;28;20611;-33
2023/05/01 04:02:58;;;;;;;4.07;2.80;;;15.70;99.90;;;;;;5041043;28;20792;-34
2023/05/01 04:05:25;;;;;;;3.17;2.70;;;15.70;99.90;;;;;;5035103;28;20207;-34
2023/05/01 04:07:53;;;;;;;3.40;2.97;;;15.60;99.90;;;;;;5045118;28;20232;-34
2023/05/01 04:10:20;;;;;;;6.05;2.90;;;15.60;99.90;;;;;;5029216;28;20611;-34
2023/05/01 04:12:47;;;;;;;4.03;2.65;;;15.60;99.90;;;;;;5027128;28;20224;-33
2023/05/01 04:15:17;;;;;;;2.95;2.30;;;15.60;99.90;;;;;;5045568;28;20253;-34
2023/05/01 04:17:44;;;;;;;4.25;3.20;;;15.60;99.90;;;;;;5044623;28;20223;-34
2023/05/01 04:20:11;;;;;;;4.82;2.70;;;15.50;99.90;;;;;;5028939;28;20205;-34
2023/05/01 04:22:38;;;;;;;3.90;2.83;;;15.50;99.90;;;;;;5008299;28;20209;-34
2023/05/01 04:25:07;;;;;;;4.97;2.72;;;15.50;99.90;;;;;;5024112;28;20754;-33
2023/05/01 04:27:34;;;;;;;3.40;2.97;;;15.50;99.90;;;;;;5025968;28;20240;-33
2023/05/01 04:30:02;;;;;;;4.88;3.30;;;15.50;99.90;;;;;;5029838;28;20241;-33
2023/05/01 04:32:34;;;;;;;4.45;3.20;;;15.50;99.90;;;;;;5034281;28;20682;-34
2023/05/01 04:35:04;;;;;;;3.22;2.80;;;15.50;99.90;;;;;;5043983;28;20206;-34
2023/05/01 04:37:31;;;;;;;4.22;3.47;;;15.50;99.90;;;;;;5028022;28;20235;-34
2023/05/01 04:39:58;;;;;;;4.82;3.20;;;15.40;99.90;;;;;;5039301;28;20287;-33
2023/05/01 04:42:32;;;;;;;7.47;3.58;;;15.40;99.90;;;;;;5043634;28;20211;-34
2023/05/01 04:45:03;;;;;;;5.18;2.90;;;15.40;99.90;;;;;;5043502;28;20750;-34
2023/05/01 04:47:30;;;;;;;3.92;3.53;;;15.40;99.90;;;;;;5038549;28;20632;-34
2023/05/01 04:50:00;;;;;;;3.78;3.47;;;15.40;99.90;;;;;;5030052;28;20219;-34
2023/05/01 04:52:29;;;;;;;4.22;3.17;;;15.50;99.90;;;;;;5007283;28;20217;-34
2023/05/01 04:54:59;;;;;;;4.07;3.13;;;15.50;99.90;;;;;;5026005;28;20216;-33
2023/05/01 04:57:26;;;;;;;3.50;3.20;;;15.50;99.90;;;;;;5037763;28;20729;-34
2023/05/01 04:59:56;;;;;;;3.92;3.35;;;15.50;99.90;;;;;;5041059;28;20209;-34
2023/05/01 05:02:28;;;;;;;3.53;3.20;;;15.50;99.90;;;;;;5038040;28;20587;-34
2023/05/01 05:04:58;;;;;;;3.72;2.90;;;15.50;99.90;;;;;;5042781;28;20219;-34
2023/05/01 05:07:27;;;;;;;3.72;2.85;;;15.50;99.90;;;;;;5033798;28;20319;-33
2023/05/01 05:09:58;;;;;;;3.25;2.95;;;15.50;99.90;;;;;;5036144;28;20200;-34
2023/05/01 05:12:25;;;;;;;3.30;3.00;;;15.50;99.90;;;;;;5040609;28;20224;-34
2023/05/01 05:14:53;;;;;;;3.65;2.70;;;15.50;99.90;;;;;;5024812;28;20934;-34
2023/05/01 05:17:22;;;;;;;3.17;2.88;;;15.50;99.90;;;;;;5027722;28;20318;-34
2023/05/01 05:19:50;;;;;;;4.50;3.20;;;15.50;99.90;;;;;;5030760;28;20216;-34
2023/05/01 05:22:23;;;;;;;3.35;2.70;;;15.50;99.90;;;;;;5043715;28;20224;-34
2023/05/01 05:25:02;;;;;;;3.50;3.17;;;15.50;99.90;;;;;;5024233;28;21083;-34
2023/05/01 05:27:37;;;;;;;3.67;2.90;;;15.50;99.90;;;;;;5036922;28;20215;-34
2023/05/01 05:30:05;;;;;;;3.53;3.15;;;15.50;99.90;;;;;;5028581;28;20212;-33
2023/05/01 05:32:37;;;;;;;4.03;3.13;;;15.50;99.90;;;;;;5038923;28;20298;-34
2023/05/01 05:35:07;;;;;;;4.00;3.60;;;15.50;99.90;;;;;;5030260;28;20192;-34
2023/05/01 05:37:37;;;;;;;3.83;3.22;;;15.50;99.90;;;;;;5042114;28;20258;-34
2023/05/01 05:40:08;;;;;;;3.72;3.20;;;15.50;99.90;;;;;;5036512;28;20207;-34
2023/05/01 05:42:35;;;;;;;4.72;3.63;;;15.60;99.90;;;;;;5029148;28;20833;-34
2023/05/01 05:45:02;;;;;;;6.80;3.95;;;15.60;99.90;;;;;;5022295;28;20784;-34
2023/05/01 05:47:34;;;;;;;4.53;3.60;;;15.60;99.90;;;;;;5022016;28;20209;-34
2023/05/01 05:50:05;;;;;;;4.23;3.53;;;15.60;99.90;;;;;;5033551;28;20204;-34
2023/05/01 05:52:32;;;;;;;5.97;3.83;;;15.60;99.90;;;;;;5042067;28;20306;-34
2023/05/01 05:55:01;;;;;;;4.60;3.88;;;15.60;99.90;;;;;;5037236;28;20216;-34
2023/05/01 05:57:29;;;;;;;4.93;3.75;;;15.60;99.90;;;;;;5022648;28;20325;-34
2023/05/01 05:59:56;;;;;;;4.93;3.90;;;15.70;99.90;;;;;;5021363;28;20201;-33
2023/05/01 06:02:24;;;;;;;4.18;3.65;;;15.70;99.90;;;;;;5022834;28;20216;-34
2023/05/01 06:04:51;;;;;;;5.00;3.72;;;15.70;99.90;;;;;;5036423;28;20215;-34
2023/05/01 06:07:21;;;;;;;4.10;3.80;;;15.70;99.90;;;;;;5029317;28;20602;-34
2023/05/01 06:09:49;;;;;;;4.57;4.18;;;15.80;99.90;;;;;;5025650;28;20745;-34
2023/05/01 06:12:16;;;;;;;5.90;4.00;;;15.80;99.90;;;;;;5042948;28;20720;-34
2023/05/01 06:14:46;;;;;;;4.80;3.83;;;15.80;99.90;;;;;;5042100;28;20204;-34
2023/05/01 06:17:16;;;;;;;5.50;3.85;;;15.90;99.90;;;;;;5043856;28;20209;-34
2023/05/01 06:19:45;;;;;;;5.18;4.00;;;15.90;99.90;;;;;;5043619;28;20214;-34
2023/05/01 06:22:12;;;;;;;5.03;4.13;;;16.00;99.90;;;;;;5041884;28;20200;-34
2023/05/01 06:24:40;;;;;;;3.95;3.60;;;16.00;99.90;;;;;;5035065;28;20201;-33
2023/05/01 06:27:10;;;;;;;4.75;3.72;;;16.10;99.90;;;;;;5024014;28;20623;-34
2023/05/01 06:29:41;;;;;;;4.32;3.72;;;16.10;99.90;;;;;;5031409;28;20661;-34
2023/05/01 06:32:11;;;;;;;5.38;3.92;;;16.20;99.90;;;;;;5035636;28;21012;-34
2023/05/01 06:34:41;;;;;;;4.97;4.37;;;16.20;99.90;;;;;;5041622;28;20236;-34
2023/05/01 06:37:15;;;;;;;4.32;3.92;;;16.30;99.90;;;;;;5043666;28;20211;-34
2023/05/01 06:39:46;;;;;;;4.13;3.47;;;16.30;99.90;;;;;;5043228;28;20196;-34
2023/05/01 06:42:16;;;;;;;4.72;4.07;;;16.40;99.90;;;;;;5032954;28;20275;-34
2023/05/01 06:44:43;;;;;;;5.70;3.50;;;16.40;99.90;;;;;;5038769;28;20321;-34
2023/05/01 06:47:10;;;;;;;4.20;3.80;;;16.50;99.90;;;;;;5028329;28;20295;-34
2023/05/01 06:49:42;;;;;;;5.38;3.92;;;16.50;99.90;;;;;;5039852;28;20559;-34
2023/05/01 06:52:12;;;;;;;4.15;3.80;;;16.60;99.90;;;;;;5041415;28;20223;-34
2023/05/01 06:54:41;;;;;;;4.67;4.03;;;16.70;99.90;;;;;;5033353;28;20225;-34
2023/05/01 06:57:10;;;;;;;4.22;3.80;;;16.70;99.90;;;;;;5042775;28;20240;-34
2023/05/01 06:59:40;;;;;;;4.15;3.72;;;16.80;99.90;;;;;;5022359;28;20224;-34
2023/05/01 07:02:10;;;;;;;3.83;3.42;;;16.90;99.90;;;;;;5021592;28;20235;-34
2023/05/01 07:04:39;;;;;;;4.93;3.75;;;17.00;99.90;;;;;;5033432;28;20220;-34
2023/05/01 07:07:14;;;;;;;5.47;4.05;;;17.00;99.90;;;;;;5022106;28;20205;-34
2023/05/01 07:09:41;;;;;;;5.35;3.55;;;17.10;99.90;;;;;;5026598;28;20204;-34
2023/05/01 07:12:08;;;;;;;3.58;3.28;;;17.20;99.90;;;;;;5038257;28;20585;-34
2023/05/01 07:14:40;;;;;;;4.50;4.07;;;17.30;99.90;;;;;;5038193;28;20316;-34
2023/05/01 07:17:09;;;;;;;5.28;4.00;;;17.40;99.90;;;;;;5026832;28;20669;-34
2023/05/01 07:19:41;;;;;;;8.13;4.00;;;17.50;99.90;;;;;;5032553;28;20201;-34
2023/05/01 07:22:09;;;;;;;4.40;3.95;;;17.60;99.90;;;;;;5021658;28;20275;-34
2023/05/01 07:24:38;;;;;;;4.20;3.80;;;17.60;99.90;;;;;;5031107;28;20203;-34
2023/05/01 07:27:05;;;;;;;7.10;4.80;;;17.70;99.90;;;;;;5035094;28;20204;-34
2023/05/01 07:29:36;;;;;;;5.38;4.88;;;17.80;99.90;;;;;;5029557;28;20212;-34
2023/05/01 07:32:06;;;;;;;5.25;4.75;;;17.80;99.90;;;;;;5025493;28;20217;-34
2023/05/01 07:34:34;;;;;;;5.53;4.90;;;17.90;99.90;;;;;;5033995;28;20331;-34
2023/05/01 07:37:03;;;;;;;7.72;6.80;;;18.00;99.90;;;;;;5037532;28;20232;-34
2023/05/01 07:39:33;;;;;;;11.18;9.90;;;18.00;99.90;;;;;;5025701;28;20232;-34
2023/05/01 07:42:07;;;;;;;8.13;7.32;;;18.00;99.90;;;;;;5025786;28;20201;-34
2023/05/01 07:44:34;;;;;;;10.05;9.05;;;18.10;99.90;;;;;;5025421;28;20827;-34
2023/05/01 07:47:03;;;;;;;11.32;10.13;;;18.10;99.90;;;;;;5026166;28;20235;-34
2023/05/01 07:49:36;;;;;;;10.68;9.30;;;18.20;99.90;;;;;;5043048;28;20314;-34
2023/05/01 07:52:06;;;;;;;10.23;9.23;;;18.20;99.90;;;;;;5044632;28;20253;-34
2023/05/01 07:54:35;;;;;;;11.93;10.65;;;18.30;99.90;;;;;;5034622;28;20213;-34
2023/05/01 07:57:05;;;;;;;12.80;11.45;;;18.30;99.90;;;;;;5028613;28;20281;-34
2023/05/01 07:59:32;;;;;;;11.95;10.75;;;18.40;99.90;;;;;;5027660;28;20205;-34
2023/05/01 08:02:02;;;;;;;14.65;12.80;;;18.40;99.90;;;;;;5044680;28;20200;-34
2023/05/01 08:04:30;;;;;;;12.52;11.32;;;18.40;99.90;;;;;;5042262;28;20723;-34
2023/05/01 08:06:57;;;;;;;13.98;11.88;;;18.50;99.90;;;;;;5042903;28;20235;-34
2023/05/01 08:09:26;;;;;;;15.05;13.18;;;18.50;99.90;;;;;;5033865;28;20293;-34
2023/05/01 08:11:56;;;;;;;13.07;11.55;;;18.60;99.90;;;;;;5031602;28;20299;-34
2023/05/01 08:14:28;;;;;;;13.15;11.77;;;18.60;99.90;;;;;;5023060;28;20228;-34
2023/05/01 08:16:58;;;;;;;14.20;12.70;;;18.60;99.90;;;;;;5029881;28;20675;-34
2023/05/01 08:19:27;;;;;;;15.25;12.65;;;18.70;99.90;;;;;;5039069;28;20407;-34
2023/05/01 08:21:55;;;;;;;13.65;12.25;;;18.80;99.90;;;;;;5032589;28;20299;-34
2023/05/01 08:24:22;;;;;;;15.20;13.52;;;18.80;99.90;;;;;;5025985;28;20770;-29
2023/05/01 08:26:52;;;;;;;15.68;14.07;;;18.80;99.90;;;;;;5040167;28;20311;-29
2023/05/01 08:29:21;;;;;;;15.95;13.32;;;18.80;99.90;;;;;;5026035;28;20398;-29
2023/05/01 08:31:51;;;;;;;15.38;13.05;;;18.90;99.90;;;;;;5043787;28;20204;-28
2023/05/01 08:34:18;;;;;;;14.68;13.10;;;18.90;99.90;;;;;;5041896;28;20712;-29
2023/05/01 08:36:47;;;;;;;16.58;14.23;;;18.90;99.90;;;;;;5045523;28;20293;-29
2023/05/01 08:39:17;;;;;;;15.13;13.52;;;18.90;99.90;;;;;;5024333;28;20204;-29
2023/05/01 08:41:49;;;;;;;16.15;14.52;;;18.90;99.90;;;;;;5040021;28;20225;-29
2023/05/01 08:44:18;;;;;;;15.95;12.50;;;19.00;99.90;;;;;;5023059;28;20236;-29
2023/05/01 08:46:57;;;;;;;15.35;13.75;;;19.00;99.90;;;;;;5040176;28;20302;-29
2023/05/01 08:49:31;;;;;;;15.88;14.27;;;19.10;99.90;;;;;;5035393;28;20224;-29
2023/05/01 08:52:01;;;;;;;18.90;16.63;;;19.10;99.90;;;;;;5043239;28;20204;-29
2023/05/01 08:54:33;;;;;;;19.67;17.67;;;19.10;99.90;;;;;;5035799;28;20323;-29
2023/05/01 08:57:04;;;;;;;20.23;17.98;;;19.10;99.90;;;;;;5037861;28;21195;-29
2023/05/01 08:59:38;;;;;;;21.35;18.60;;;19.10;99.90;;;;;;5024467;28;20220;-29
2023/05/01 09:02:09;;;;;;;21.00;18.90;;;19.10;99.90;;;;;;5031529;28;20196;-29
2023/05/01 09:04:40;;;;;;;20.17;17.98;;;19.10;99.90;;;;;;5042023;28;20637;-29
2023/05/01 09:07:13;;;;;;;19.90;17.73;;;19.10;99.90;;;;;;5043648;28;20671;-34
2023/05/01 09:09:43;;;;;;;21.40;19.15;;;19.10;99.90;;;;;;5036346;28;20213;-35
2023/05/01 09:12:23;;;;;;;22.13;19.25;;;19.10;99.90;;;;;;5046122;28;20208;-34
2023/05/01 09:14:57;;;;;;;21.40;19.02;;;19.00;99.90;;;;;;5031647;28;20234;-35
2023/05/01 09:17:29;;;;;;;21.75;19.55;;;19.00;99.90;;;;;;5038090;28;20224;-34
2023/05/01 09:19:58;;;;;;;22.33;20.02;;;19.00;99.90;;;;;;5039227;28;20655;-34
2023/05/01 09:22:25;;;;;;;23.02;20.52;;;19.00;99.90;;;;;;5041887;28;20228;-34
2023/05/01 09:24:52;;;;;;;25.85;22.20;;;19.00;99.90;;;;;;5037675;28;20211;-35
2023/05/01 09:27:19;;;;;;;24.65;21.95;;;19.00;99.90;;;;;;5031209;28;20665;-34
2023/05/01 09:29:47;;;;;;;27.08;24.13;;;19.00;99.90;;;;;;5032426;28;20299;-34
2023/05/01 09:32:24;;;;;;;29.23;24.40;;;19.10;99.90;;;;;;5038485;28;20553;-35
2023/05/01 09:34:53;;;;;;;25.70;22.60;;;19.10;99.90;;;;;;5043318;28;21060;-35
2023/05/01 09:37:33;;;;;;;28.45;24.27;;;19.10;99.90;;;;;;5026296;28;20678;-35
2023/05/01 09:40:15;;;;;;;30.48;25.27;;;19.20;99.90;;;;;;5032924;28;20220;-35
2023/05/01 09:42:55;;;;;;;31.85;25.95;;;19.20;99.90;;;;;;5050436;28;20256;-35
2023/05/01 09:45:25;;;;;;;35.05;27.88;;;19.30;99.90;;;;;;5035330;28;20291;-35
2023/05/01 09:48:09;;;;;;;31.60;27.58;;;19.30;99.90;;;;;;5024925;28;20660;-35
2023/05/01 09:50:41;;;;;;;33.58;27.60;;;19.30;99.90;;;;;;5036490;28;20248;-35
2023/05/01 09:53:12;;;;;;;33.20;27.73;;;19.40;99.90;;;;;;5035619;28;20628;-33
2023/05/01 09:55:39;;;;;;;32.97;26.73;;;19.40;99.90;;;;;;5031748;28;20395;-34
2023/05/01 09:58:06;;;;;;;30.90;26.77;;;19.50;99.90;;;;;;5039885;28;20216;-34
2023/05/01 10:00:48;;;;;;;33.15;28.25;;;19.50;99.90;;;;;;5038683;28;20265;-34
2023/05/01 10:03:18;;;;;;;32.38;26.27;;;19.60;99.90;;;;;;5038221;28;20619;-34
2023/05/01 10:05:45;;;;;;;33.10;26.27;;;19.60;99.90;;;;;;5025576;28;20310;-34
2023/05/01 10:08:15;;;;;;;32.08;26.45;;;19.70;99.90;;;;;;5038082;28;20235;-34
2023/05/01 10:10:59;;;;;;;32.25;27.00;;;19.70;99.90;;;;;;5034904;28;20235;-34
2023/05/01 10:13:29;;;;;;;34.15;28.23;;;19.70;99.90;;;;;;5022885;28;20523;-34
2023/05/01 10:15:56;;;;;;;36.72;28.25;;;19.70;99.90;;;;;;5031741;28;20243;-34
2023/05/01 10:18:24;;;;;;;34.08;29.20;;;19.70;99.90;;;;;;5031519;28;20239;-34
2023/05/01 10:20:54;;;;;;;33.40;27.77;;;19.80;99.90;;;;;;5031176;28;20289;-34
2023/05/01 10:23:24;;;;;;;41.75;33.25;;;19.80;99.90;;;;;;5029972;28;20206;-34
2023/05/01 10:25:58;;;;;;;42.83;33.90;;;19.90;99.90;;;;;;5034732;28;20200;-34
2023/05/01 10:28:30;;;;;;;42.17;33.33;;;19.90;99.90;;;;;;5036708;28;20939;-34
2023/05/01 10:31:01;;;;;;;38.70;32.00;;;19.90;99.90;;;;;;5040330;28;20305;-34
2023/05/01 10:33:31;;;;;;;36.35;29.08;;;19.90;99.90;;;;;;5031481;28;20212;-34
2023/05/01 10:35:59;;;;;;;38.85;29.98;;;19.90;99.90;;;;;;5023218;28;20201;-34
2023/05/01 10:38:35;;;;;;;43.20;34.15;;;19.90;99.90;;;;;;5021889;28;20543;-34
2023/05/01 10:41:08;;;;;;;37.22;31.27;;;20.00;99.90;;;;;;5007308;28;20319;-34
2023/05/01 10:43:35;;;;;;;40.97;32.22;;;19.90;99.90;;;;;;5024052;28;20213;-34
2023/05/01 10:46:07;;;;;;;38.63;32.15;;;20.00;99.90;;;;;;5035770;28;20201;-34
2023/05/01 10:48:38;;;;;;;41.25;32.45;;;20.00;99.90;;;;;;5037192;28;20243;-34
2023/05/01 10:51:16;;;;;;;41.70;32.97;;;20.00;99.90;;;;;;5038026;28;20211;-34
2023/05/01 10:53:48;;;;;;;42.58;32.83;;;20.00;99.90;;;;;;5037012;28;20676;-34
2023/05/01 10:56:22;;;;;;;35.95;29.70;;;20.00;99.90;;;;;;5034326;28;20685;-34
2023/05/01 10:58:57;;;;;;;34.38;28.70;;;20.00;99.90;;;;;;5023458;28;20318;-34
2023/05/01 11:01:38;;;;;;;41.20;30.35;;;20.00;99.90;;;;;;5027641;28;20279;-34
2023/05/01 11:04:07;;;;;;;40.88;32.33;;;20.10;99.90;;;;;;5027810;28;20204;-34
2023/05/01 11:06:36;;;;;;;40.00;32.38;;;20.10;99.90;;;;;;5035460;28;20205;-34
2023/05/01 11:09:53;;;;;;;42.33;32.47;;;20.10;99.90;;;;;;5038478;28;20631;-34
2023/05/01 11:12:44;;;;;;;42.28;32.60;;;20.10;99.90;;;;;;5034147;28;20594;-34
2023/05/01 11:15:31;;;;;;;39.25;31.05;;;20.10;99.90;;;;;;5032095;28;20275;-34
2023/05/01 11:18:02;;;;;;;37.55;29.02;;;20.10;99.90;;;;;;5032549;28;20266;-33
2023/05/01 11:20:35;;;;;;;41.17;30.48;;;20.10;99.90;;;;;;5032356;28;20204;-33
2023/05/01 11:23:05;;;;;;;36.00;28.83;;;20.10;99.90;;;;;;5043817;28;20211;-33
2023/05/01 11:25:35;;;;;;;37.80;29.10;;;20.10;99.90;;;;;;5048575;28;20702;-33
2023/05/01 11:28:05;;;;;;;36.53;29.10;;;20.10;99.90;;;;;;5029772;28;20203;-29
2023/05/01 11:30:43;;;;;;;33.25;26.40;;;20.10;99.90;;;;;;5029091;28;20753;-28
2023/05/01 11:33:19;;;;;;;40.80;29.95;;;20.10;99.90;;;;;;5034048;28;20705;-28
2023/05/01 11:35:56;;;;;;;31.80;26.55;;;20.10;99.90;;;;;;5028019;28;20236;-28
2023/05/01 11:38:23;;;;;;;32.67;25.30;;;20.10;99.90;;;;;;5048396;28;20204;-28
2023/05/01 11:40:58;;;;;;;28.85;23.15;;;20.10;99.90;;;;;;5042654;28;20208;-29
2023/05/01 11:43:25;;;;;;;31.20;24.45;;;20.10;99.90;;;;;;5025838;28;20672;-29
2023/05/01 11:45:53;;;;;;;24.65;20.73;;;20.10;99.90;;;;;;5026887;28;20306;-28
2023/05/01 11:48:26;;;;;;;26.27;22.23;;;20.10;99.90;;;;;;5037082;28;20200;-30
2023/05/01 11:50:55;;;;;;;25.65;21.23;;;20.10;99.90;;;;;;5025563;28;20561;-28
2023/05/01 11:53:25;;;;;;;26.30;23.40;;;20.10;99.90;;;;;;5041801;28;20720;-29
2023/05/01 11:55:59;;;;;;;23.65;20.67;;;20.10;99.90;;;;;;5035778;28;20272;-29
2023/05/01 11:58:33;;;;;;;25.55;22.83;;;20.10;99.90;;;;;;5031751;28;21039;-29
2023/05/01 12:01:06;;;;;;;25.27;22.25;;;20.10;99.90;;;;;;5026988;28;20220;-28
2023/05/01 12:03:43;;;;;;;21.45;18.33;;;20.10;99.90;;;;;;5030622;28;20211;-29
2023/05/01 12:06:13;;;;;;;23.17;20.05;;;20.10;99.90;;;;;;5020068;28;20632;-28
2023/05/01 12:08:49;;;;;;;20.45;18.30;;;20.10;99.90;;;;;;5039507;28;20583;-28
2023/05/01 12:11:19;;;;;;;23.50;20.88;;;20.10;99.90;;;;;;5036163;28;20697;-29
2023/05/01 12:13:49;;;;;;;22.45;20.25;;;20.10;99.90;;;;;;5038870;28;20261;-28
2023/05/01 12:16:16;;;;;;;19.92;17.85;;;20.10;99.90;;;;;;5042445;28;20200;-28
2023/05/01 12:18:47;;;;;;;20.08;17.90;;;20.00;99.90;;;;;;5041780;28;20266;-28
2023/05/01 12:21:17;;;;;;;22.58;20.17;;;20.00;99.90;;;;;;5037139;28;20296;-28
2023/05/01 12:23:48;;;;;;;20.85;18.02;;;20.00;99.90;;;;;;5014113;28;20299;-28
2023/05/01 12:26:19;;;;;;;22.40;19.92;;;20.00;99.90;;;;;;5039112;28;20792;-28
2023/05/01 12:29:00;;;;;;;24.08;21.48;;;20.00;99.90;;;;;;5041958;28;20289;-28
2023/05/01 12:31:30;;;;;;;25.38;21.75;;;20.10;99.90;;;;;;5043799;28;20200;-28
2023/05/01 12:34:06;;;;;;;27.48;22.77;;;20.10;99.90;;;;;;5036941;28;20674;-28
2023/05/01 12:36:34;;;;;;;24.08;21.48;;;20.20;99.90;;;;;;5043088;28;20448;-28
2023/05/01 12:39:03;;;;;;;24.40;21.80;;;20.20;99.90;;;;;;5044792;28;20296;-30
2023/05/01 12:41:43;;;;;;;26.20;22.08;;;20.20;99.90;;;;;;5038001;28;20297;-30
2023/05/01 12:44:23;;;;;;;25.55;22.75;;;20.30;99.90;;;;;;5028480;28;20299;-30
2023/05/01 12:47:11;;;;;;;25.60;22.45;;;20.30;99.90;;;;;;5024163;28;20651;-30
2023/05/01 12:49:41;;;;;;;22.90;20.52;;;20.40;99.90;;;;;;5036361;28;20196;-30
2023/05/01 12:52:09;;;;;;;22.63;20.30;;;20.40;99.90;;;;;;5036200;28;20208;-30
2023/05/01 12:54:40;;;;;;;24.67;20.90;;;20.50;99.90;;;;;;5041255;28;20231;-29
2023/05/01 12:57:14;;;;;;;23.98;21.42;;;20.50;99.90;;;;;;5042278;28;20239;-28
2023/05/01 12:59:44;;;;;;;31.67;24.45;;;20.60;99.90;;;;;;5030896;28;20204;-29